sensor_id;sensor_type;location;lat;lon;timestamp;pressure;altitude;pressure_sealevel;temperature;humidity
52291;BME280;39663;45.432;28.050;2023-04-24T00:07:37;101170.95;;;11.34;50.36
52291;BME280;39663;45.432;28.050;2023-04-24T00:08:08;101170.42;;;11.91;49.17
52291;BME280;39663;45.432;28.050;2023-04-24T00:08:40;101166.23;;;12.05;49.22
52291;BME280;39663;45.432;28.050;2023-04-24T00:09:11;101171.50;;;11.40;49.58
52291;BME280;39663;45.432;28.050;2023-04-24T00:09:43;101172.09;;;11.39;49.41
52291;BME280;39663;45.432;28.050;2023-04-24T00:10:14;101170.63;;;11.14;49.84
52291;BME280;39663;45.432;28.050;2023-04-24T00:10:47;101171.77;;;11.22;49.96
52291;BME280;39663;45.432;28.050;2023-04-24T00:11:19;101171.35;;;11.40;49.71
52291;BME280;39663;45.432;28.050;2023-04-24T00:11:50;101170.51;;;11.95;48.80
52291;BME280;39663;45.432;28.050;2023-04-24T00:12:22;101169.03;;;12.01;48.59
52291;BME280;39663;45.432;28.050;2023-04-24T00:12:53;101165.98;;;12.29;47.96
52291;BME280;39663;45.432;28.050;2023-04-24T00:13:25;101163.56;;;12.26;47.87
52291;BME280;39663;45.432;28.050;2023-04-24T00:13:57;101162.59;;;12.31;48.48
52291;BME280;39663;45.432;28.050;2023-04-24T00:14:28;101168.00;;;11.95;48.63
52291;BME280;39663;45.432;28.050;2023-04-24T00:15:00;101163.29;;;11.91;48.09
52291;BME280;39663;45.432;28.050;2023-04-24T00:15:32;101160.87;;;12.12;48.29
52291;BME280;39663;45.432;28.050;2023-04-24T00:16:04;101161.54;;;12.26;47.70
52291;BME280;39663;45.432;28.050;2023-04-24T00:16:36;101161.89;;;12.42;47.13
52291;BME280;39663;45.432;28.050;2023-04-24T00:17:08;101160.22;;;12.46;46.71
52291;BME280;39663;45.432;28.050;2023-04-24T00:17:40;101158.77;;;12.50;46.27
52291;BME280;39663;45.432;28.050;2023-04-24T00:18:11;101158.52;;;12.62;46.05
52291;BME280;39663;45.432;28.050;2023-04-24T00:18:42;101156.32;;;12.58;45.57
52291;BME280;39663;45.432;28.050;2023-04-24T00:19:14;101157.92;;;12.29;46.13
52291;BME280;39663;45.432;28.050;2023-04-24T00:19:45;101158.48;;;12.30;46.72
52291;BME280;39663;45.432;28.050;2023-04-24T00:20:17;101157.64;;;12.32;47.20
52291;BME280;39663;45.432;28.050;2023-04-24T00:20:48;101158.10;;;12.36;47.07
52291;BME280;39663;45.432;28.050;2023-04-24T00:21:20;101158.28;;;12.05;46.47
52291;BME280;39663;45.432;28.050;2023-04-24T00:21:52;101158.28;;;12.29;45.92
52291;BME280;39663;45.432;28.050;2023-04-24T00:22:23;101155.79;;;12.26;45.72
52291;BME280;39663;45.432;28.050;2023-04-24T00:22:55;101157.85;;;11.78;46.23
52291;BME280;39663;45.432;28.050;2023-04-24T00:23:26;101156.57;;;11.86;46.36
52291;BME280;39663;45.432;28.050;2023-04-24T00:23:58;101160.06;;;11.68;46.37
52291;BME280;39663;45.432;28.050;2023-04-24T00:24:30;101160.56;;;11.74;46.44
52291;BME280;39663;45.432;28.050;2023-04-24T00:25:01;101160.41;;;11.88;46.22
52291;BME280;39663;45.432;28.050;2023-04-24T00:25:33;101156.01;;;12.07;45.86
52291;BME280;39663;45.432;28.050;2023-04-24T00:26:04;101155.83;;;12.08;45.61
52291;BME280;39663;45.432;28.050;2023-04-24T00:26:36;101161.37;;;11.97;45.98
52291;BME280;39663;45.432;28.050;2023-04-24T00:27:07;101162.39;;;11.71;46.26
52291;BME280;39663;45.432;28.050;2023-04-24T00:27:40;101162.65;;;12.17;46.10
52291;BME280;39663;45.432;28.050;2023-04-24T00:28:11;101159.63;;;12.21;45.42
52291;BME280;39663;45.432;28.050;2023-04-24T00:28:43;101158.66;;;12.41;45.03
52291;BME280;39663;45.432;28.050;2023-04-24T00:29:14;101158.75;;;12.25;45.17
52291;BME280;39663;45.432;28.050;2023-04-24T00:29:46;101157.97;;;12.11;45.27
52291;BME280;39663;45.432;28.050;2023-04-24T00:30:18;101157.66;;;12.20;44.81
52291;BME280;39663;45.432;28.050;2023-04-24T00:30:49;101157.57;;;12.28;45.22
52291;BME280;39663;45.432;28.050;2023-04-24T00:31:21;101159.62;;;11.94;45.83
52291;BME280;39663;45.432;28.050;2023-04-24T00:31:53;101161.56;;;11.64;45.92
52291;BME280;39663;45.432;28.050;2023-04-24T00:32:24;101155.71;;;11.97;45.65
52291;BME280;39663;45.432;28.050;2023-04-24T00:32:56;101154.64;;;11.96;45.55
52291;BME280;39663;45.432;28.050;2023-04-24T00:33:28;101153.50;;;11.89;45.59
52291;BME280;39663;45.432;28.050;2023-04-24T00:33:59;101157.92;;;11.85;45.67
52291;BME280;39663;45.432;28.050;2023-04-24T00:34:30;101155.68;;;11.93;45.16
52291;BME280;39663;45.432;28.050;2023-04-24T00:35:02;101150.74;;;12.34;44.43
52291;BME280;39663;45.432;28.050;2023-04-24T00:35:34;101155.28;;;11.82;44.94
52291;BME280;39663;45.432;28.050;2023-04-24T00:36:05;101152.64;;;12.16;44.90
52291;BME280;39663;45.432;28.050;2023-04-24T00:36:37;101151.77;;;12.07;44.48
52291;BME280;39663;45.432;28.050;2023-04-24T00:37:08;101158.24;;;11.89;44.91
52291;BME280;39663;45.432;28.050;2023-04-24T00:37:40;101154.59;;;11.96;44.87
52291;BME280;39663;45.432;28.050;2023-04-24T00:38:12;101153.08;;;11.98;44.86
52291;BME280;39663;45.432;28.050;2023-04-24T00:38:43;101153.88;;;12.18;44.35
52291;BME280;39663;45.432;28.050;2023-04-24T00:39:15;101154.47;;;12.37;44.38
52291;BME280;39663;45.432;28.050;2023-04-24T00:39:46;101153.18;;;12.28;44.41
52291;BME280;39663;45.432;28.050;2023-04-24T00:40:18;101151.74;;;12.31;44.13
52291;BME280;39663;45.432;28.050;2023-04-24T00:40:49;101150.37;;;12.42;44.16
52291;BME280;39663;45.432;28.050;2023-04-24T00:41:21;101151.18;;;12.45;43.86
52291;BME280;39663;45.432;28.050;2023-04-24T00:41:53;101151.41;;;12.42;43.93
52291;BME280;39663;45.432;28.050;2023-04-24T00:42:25;101151.80;;;12.32;44.42
52291;BME280;39663;45.432;28.050;2023-04-24T00:42:57;101152.03;;;12.36;44.18
52291;BME280;39663;45.432;28.050;2023-04-24T00:43:28;101148.70;;;12.44;44.25
52291;BME280;39663;45.432;28.050;2023-04-24T00:44:00;101148.22;;;12.58;44.08
52291;BME280;39663;45.432;28.050;2023-04-24T00:44:32;101145.80;;;12.41;43.84
52291;BME280;39663;45.432;28.050;2023-04-24T00:45:04;101147.18;;;12.36;43.95
52291;BME280;39663;45.432;28.050;2023-04-24T00:45:36;101150.44;;;12.42;44.21
52291;BME280;39663;45.432;28.050;2023-04-24T00:46:08;101147.77;;;12.44;43.91
52291;BME280;39663;45.432;28.050;2023-04-24T00:46:40;101146.70;;;12.27;44.29
52291;BME280;39663;45.432;28.050;2023-04-24T00:47:13;101145.43;;;11.98;44.81
52291;BME280;39663;45.432;28.050;2023-04-24T00:47:46;101151.96;;;11.74;45.32
52291;BME280;39663;45.432;28.050;2023-04-24T00:48:18;101145.02;;;12.00;44.63
52291;BME280;39663;45.432;28.050;2023-04-24T00:48:52;101146.10;;;12.06;44.51
52291;BME280;39663;45.432;28.050;2023-04-24T00:49:23;101150.35;;;11.78;45.44
52291;BME280;39663;45.432;28.050;2023-04-24T00:49:55;101150.51;;;11.74;45.50
52291;BME280;39663;45.432;28.050;2023-04-24T00:50:26;101150.05;;;11.62;45.36
52291;BME280;39663;45.432;28.050;2023-04-24T00:50:58;101150.39;;;11.73;45.13
52291;BME280;39663;45.432;28.050;2023-04-24T00:51:30;101143.60;;;11.97;44.79
52291;BME280;39663;45.432;28.050;2023-04-24T00:52:01;101150.38;;;11.75;45.31
52291;BME280;39663;45.432;28.050;2023-04-24T00:52:33;101149.63;;;11.83;45.13
52291;BME280;39663;45.432;28.050;2023-04-24T00:53:05;101150.42;;;11.81;45.19
52291;BME280;39663;45.432;28.050;2023-04-24T00:53:36;101148.08;;;11.89;44.85
52291;BME280;39663;45.432;28.050;2023-04-24T00:54:08;101150.13;;;11.87;44.97
52291;BME280;39663;45.432;28.050;2023-04-24T00:54:39;101148.54;;;11.95;44.92
52291;BME280;39663;45.432;28.050;2023-04-24T00:55:11;101151.82;;;11.90;45.05
52291;BME280;39663;45.432;28.050;2023-04-24T00:55:43;101149.61;;;12.10;44.74
52291;BME280;39663;45.432;28.050;2023-04-24T00:56:14;101151.45;;;12.17;44.64
52291;BME280;39663;45.432;28.050;2023-04-24T00:56:46;101151.41;;;12.59;44.51
52291;BME280;39663;45.432;28.050;2023-04-24T00:57:18;101152.01;;;12.30;44.71
52291;BME280;39663;45.432;28.050;2023-04-24T00:57:50;101151.09;;;12.26;44.91
52291;BME280;39663;45.432;28.050;2023-04-24T00:58:22;101150.21;;;12.16;44.89
52291;BME280;39663;45.432;28.050;2023-04-24T00:58:53;101148.68;;;12.12;44.97
52291;BME280;39663;45.432;28.050;2023-04-24T00:59:25;101152.57;;;11.84;45.08
52291;BME280;39663;45.432;28.050;2023-04-24T00:59:57;101151.02;;;12.13;44.92
52291;BME280;39663;45.432;28.050;2023-04-24T01:00:29;101151.82;;;12.24;44.62
52291;BME280;39663;45.432;28.050;2023-04-24T01:01:01;101150.23;;;12.23;44.91
52291;BME280;39663;45.432;28.050;2023-04-24T01:01:33;101148.13;;;12.10;45.35
52291;BME280;39663;45.432;28.050;2023-04-24T01:02:04;101147.96;;;11.97;45.81
52291;BME280;39663;45.432;28.050;2023-04-24T01:02:38;101151.18;;;11.78;46.04
52291;BME280;39663;45.432;28.050;2023-04-24T01:03:10;101151.12;;;11.84;45.85
52291;BME280;39663;45.432;28.050;2023-04-24T01:03:42;101144.75;;;12.27;45.38
52291;BME280;39663;45.432;28.050;2023-04-24T01:04:14;101145.50;;;12.16;45.28
52291;BME280;39663;45.432;28.050;2023-04-24T01:04:49;101145.59;;;12.22;45.01
52291;BME280;39663;45.432;28.050;2023-04-24T01:05:21;101145.73;;;12.18;45.02
52291;BME280;39663;45.432;28.050;2023-04-24T01:05:54;101145.02;;;12.18;45.31
52291;BME280;39663;45.432;28.050;2023-04-24T01:06:28;101144.60;;;12.02;45.44
52291;BME280;39663;45.432;28.050;2023-04-24T01:07:00;101142.86;;;12.42;45.59
52291;BME280;39663;45.432;28.050;2023-04-24T01:07:32;101144.46;;;12.15;46.02
52291;BME280;39663;45.432;28.050;2023-04-24T01:08:04;101144.80;;;11.77;45.91
52291;BME280;39663;45.432;28.050;2023-04-24T01:08:36;101146.49;;;11.82;46.11
52291;BME280;39663;45.432;28.050;2023-04-24T01:09:08;101143.57;;;11.92;45.96
52291;BME280;39663;45.432;28.050;2023-04-24T01:09:41;101145.48;;;11.87;46.05
52291;BME280;39663;45.432;28.050;2023-04-24T01:10:14;101144.77;;;12.30;45.68
52291;BME280;39663;45.432;28.050;2023-04-24T01:10:47;101144.50;;;11.92;46.02
52291;BME280;39663;45.432;28.050;2023-04-24T01:11:19;101149.54;;;11.52;46.96
52291;BME280;39663;45.432;28.050;2023-04-24T01:11:50;101148.39;;;11.67;46.99
52291;BME280;39663;45.432;28.050;2023-04-24T01:12:22;101149.08;;;11.80;46.70
52291;BME280;39663;45.432;28.050;2023-04-24T01:12:53;101151.97;;;11.76;46.90
52291;BME280;39663;45.432;28.050;2023-04-24T01:13:25;101150.15;;;11.61;47.40
52291;BME280;39663;45.432;28.050;2023-04-24T01:13:57;101149.71;;;11.57;47.46
52291;BME280;39663;45.432;28.050;2023-04-24T01:14:29;101152.00;;;11.76;47.09
52291;BME280;39663;45.432;28.050;2023-04-24T01:15:01;101150.42;;;11.74;46.74
52291;BME280;39663;45.432;28.050;2023-04-24T01:15:32;101145.08;;;12.15;46.39
52291;BME280;39663;45.432;28.050;2023-04-24T01:16:04;101143.81;;;12.32;45.87
52291;BME280;39663;45.432;28.050;2023-04-24T01:16:36;101144.60;;;12.13;45.90
52291;BME280;39663;45.432;28.050;2023-04-24T01:17:07;101143.49;;;12.34;45.95
52291;BME280;39663;45.432;28.050;2023-04-24T01:17:39;101145.29;;;11.87;46.64
52291;BME280;39663;45.432;28.050;2023-04-24T01:18:11;101141.68;;;12.11;46.11
52291;BME280;39663;45.432;28.050;2023-04-24T01:18:42;101141.18;;;12.15;46.02
52291;BME280;39663;45.432;28.050;2023-04-24T01:19:15;101140.53;;;12.23;46.27
52291;BME280;39663;45.432;28.050;2023-04-24T01:19:47;101140.74;;;11.86;46.34
52291;BME280;39663;45.432;28.050;2023-04-24T01:20:19;101141.28;;;11.87;46.49
52291;BME280;39663;45.432;28.050;2023-04-24T01:20:52;101139.01;;;12.00;46.20
52291;BME280;39663;45.432;28.050;2023-04-24T01:21:26;101136.54;;;11.91;46.53
52291;BME280;39663;45.432;28.050;2023-04-24T01:21:59;101139.89;;;11.90;46.74
52291;BME280;39663;45.432;28.050;2023-04-24T01:22:33;101141.35;;;11.85;46.86
52291;BME280;39663;45.432;28.050;2023-04-24T01:23:05;101143.69;;;11.26;48.01
52291;BME280;39663;45.432;28.050;2023-04-24T01:23:36;101143.39;;;11.52;47.67
52291;BME280;39663;45.432;28.050;2023-04-24T01:24:08;101144.16;;;11.56;48.01
52291;BME280;39663;45.432;28.050;2023-04-24T01:24:39;101141.00;;;11.03;48.76
52291;BME280;39663;45.432;28.050;2023-04-24T01:25:11;101143.67;;;11.13;48.81
52291;BME280;39663;45.432;28.050;2023-04-24T01:25:43;101140.96;;;11.19;48.67
52291;BME280;39663;45.432;28.050;2023-04-24T01:26:19;101141.17;;;11.60;48.02
52291;BME280;39663;45.432;28.050;2023-04-24T01:26:50;101142.76;;;11.24;48.67
52291;BME280;39663;45.432;28.050;2023-04-24T01:27:22;101142.79;;;11.09;49.10
52291;BME280;39663;45.432;28.050;2023-04-24T01:27:53;101143.22;;;11.30;48.79
52291;BME280;39663;45.432;28.050;2023-04-24T01:28:24;101145.04;;;10.93;49.81
52291;BME280;39663;45.432;28.050;2023-04-24T01:28:56;101144.74;;;10.76;50.62
52291;BME280;39663;45.432;28.050;2023-04-24T01:29:28;101142.86;;;11.00;49.97
52291;BME280;39663;45.432;28.050;2023-04-24T01:29:59;101138.87;;;11.03;49.27
52291;BME280;39663;45.432;28.050;2023-04-24T01:30:32;101140.21;;;11.74;48.71
52291;BME280;39663;45.432;28.050;2023-04-24T01:31:03;101140.65;;;11.47;49.05
52291;BME280;39663;45.432;28.050;2023-04-24T01:31:35;101140.31;;;11.51;48.58
52291;BME280;39663;45.432;28.050;2023-04-24T01:32:07;101139.18;;;11.50;48.66
52291;BME280;39663;45.432;28.050;2023-04-24T01:32:38;101138.97;;;11.74;48.24
52291;BME280;39663;45.432;28.050;2023-04-24T01:33:10;101140.70;;;11.72;48.01
52291;BME280;39663;45.432;28.050;2023-04-24T01:33:42;101136.68;;;11.80;47.83
52291;BME280;39663;45.432;28.050;2023-04-24T01:34:14;101135.08;;;12.33;47.65
52291;BME280;39663;45.432;28.050;2023-04-24T01:34:46;101135.41;;;12.11;47.97
52291;BME280;39663;45.432;28.050;2023-04-24T01:35:18;101135.78;;;11.94;47.91
52291;BME280;39663;45.432;28.050;2023-04-24T01:35:50;101135.00;;;11.99;47.80
52291;BME280;39663;45.432;28.050;2023-04-24T01:36:21;101136.06;;;11.94;48.32
52291;BME280;39663;45.432;28.050;2023-04-24T01:36:53;101138.88;;;11.66;48.81
52291;BME280;39663;45.432;28.050;2023-04-24T01:37:25;101140.51;;;11.24;50.23
52291;BME280;39663;45.432;28.050;2023-04-24T01:37:56;101141.28;;;11.05;50.39
52291;BME280;39663;45.432;28.050;2023-04-24T01:38:28;101139.09;;;11.26;50.01
52291;BME280;39663;45.432;28.050;2023-04-24T01:38:59;101138.49;;;11.21;50.31
52291;BME280;39663;45.432;28.050;2023-04-24T01:39:31;101138.18;;;11.56;49.74
52291;BME280;39663;45.432;28.050;2023-04-24T01:40:03;101137.43;;;11.60;49.25
52291;BME280;39663;45.432;28.050;2023-04-24T01:40:35;101137.09;;;11.63;49.65
52291;BME280;39663;45.432;28.050;2023-04-24T01:41:06;101135.60;;;11.66;49.18
52291;BME280;39663;45.432;28.050;2023-04-24T01:41:38;101135.29;;;11.58;49.30
52291;BME280;39663;45.432;28.050;2023-04-24T01:42:09;101135.35;;;11.79;49.33
52291;BME280;39663;45.432;28.050;2023-04-24T01:42:41;101136.96;;;11.75;49.74
52291;BME280;39663;45.432;28.050;2023-04-24T01:43:13;101134.91;;;12.02;49.49
52291;BME280;39663;45.432;28.050;2023-04-24T01:43:45;101131.89;;;11.95;49.07
52291;BME280;39663;45.432;28.050;2023-04-24T01:44:17;101135.52;;;11.60;50.02
52291;BME280;39663;45.432;28.050;2023-04-24T01:44:49;101132.37;;;12.01;49.43
52291;BME280;39663;45.432;28.050;2023-04-24T01:45:21;101129.77;;;11.92;49.28
52291;BME280;39663;45.432;28.050;2023-04-24T01:45:52;101129.34;;;12.13;49.24
52291;BME280;39663;45.432;28.050;2023-04-24T01:46:24;101126.91;;;11.76;49.23
52291;BME280;39663;45.432;28.050;2023-04-24T01:46:55;101126.94;;;11.95;49.27
52291;BME280;39663;45.432;28.050;2023-04-24T01:47:27;101124.17;;;12.09;49.27
52291;BME280;39663;45.432;28.050;2023-04-24T01:47:59;101128.26;;;11.32;50.15
52291;BME280;39663;45.432;28.050;2023-04-24T01:48:31;101127.04;;;11.49;50.49
52291;BME280;39663;45.432;28.050;2023-04-24T01:49:03;101128.59;;;10.87;51.40
52291;BME280;39663;45.432;28.050;2023-04-24T01:49:35;101127.78;;;11.03;51.45
52291;BME280;39663;45.432;28.050;2023-04-24T01:50:07;101128.04;;;11.41;51.18
52291;BME280;39663;45.432;28.050;2023-04-24T01:50:39;101126.85;;;11.52;50.87
52291;BME280;39663;45.432;28.050;2023-04-24T01:51:10;101127.20;;;11.66;50.34
52291;BME280;39663;45.432;28.050;2023-04-24T01:51:42;101126.29;;;11.80;50.16
52291;BME280;39663;45.432;28.050;2023-04-24T01:52:13;101126.20;;;11.70;50.25
52291;BME280;39663;45.432;28.050;2023-04-24T01:52:45;101122.59;;;11.88;50.01
52291;BME280;39663;45.432;28.050;2023-04-24T01:53:16;101126.59;;;11.34;50.73
52291;BME280;39663;45.432;28.050;2023-04-24T01:53:47;101125.73;;;11.74;50.05
52291;BME280;39663;45.432;28.050;2023-04-24T01:54:19;101126.62;;;11.58;49.95
52291;BME280;39663;45.432;28.050;2023-04-24T01:54:50;101125.47;;;12.02;49.90
52291;BME280;39663;45.432;28.050;2023-04-24T01:55:23;101124.25;;;11.90;49.78
52291;BME280;39663;45.432;28.050;2023-04-24T01:55:54;101123.46;;;12.12;49.60
52291;BME280;39663;45.432;28.050;2023-04-24T01:56:28;101122.90;;;11.96;49.55
52291;BME280;39663;45.432;28.050;2023-04-24T01:57:00;101123.83;;;11.77;49.67
52291;BME280;39663;45.432;28.050;2023-04-24T01:57:31;101121.44;;;12.16;49.76
52291;BME280;39663;45.432;28.050;2023-04-24T01:58:04;101125.09;;;11.69;49.80
52291;BME280;39663;45.432;28.050;2023-04-24T01:58:35;101123.82;;;11.80;50.08
52291;BME280;39663;45.432;28.050;2023-04-24T01:59:08;101125.33;;;11.92;49.93
52291;BME280;39663;45.432;28.050;2023-04-24T01:59:40;101121.80;;;12.25;49.71
52291;BME280;39663;45.432;28.050;2023-04-24T02:00:12;101126.16;;;11.47;50.58
52291;BME280;39663;45.432;28.050;2023-04-24T02:00:43;101125.58;;;11.40;52.56
52291;BME280;39663;45.432;28.050;2023-04-24T02:01:18;101125.84;;;11.29;53.42
52291;BME280;39663;45.432;28.050;2023-04-24T02:01:50;101127.96;;;10.76;54.21
52291;BME280;39663;45.432;28.050;2023-04-24T02:02:21;101126.91;;;10.61;54.22
52291;BME280;39663;45.432;28.050;2023-04-24T02:02:53;101126.21;;;11.20;54.78
52291;BME280;39663;45.432;28.050;2023-04-24T02:03:25;101125.04;;;11.40;52.68
52291;BME280;39663;45.432;28.050;2023-04-24T02:03:56;101123.94;;;11.61;52.04
52291;BME280;39663;45.432;28.050;2023-04-24T02:04:28;101124.60;;;11.70;51.35
52291;BME280;39663;45.432;28.050;2023-04-24T02:04:59;101126.00;;;11.36;51.39
52291;BME280;39663;45.432;28.050;2023-04-24T02:05:31;101123.40;;;11.42;52.42
52291;BME280;39663;45.432;28.050;2023-04-24T02:06:02;101123.73;;;11.44;53.48
52291;BME280;39663;45.432;28.050;2023-04-24T02:06:34;101123.38;;;11.63;52.20
52291;BME280;39663;45.432;28.050;2023-04-24T02:07:06;101123.93;;;11.67;51.33
52291;BME280;39663;45.432;28.050;2023-04-24T02:07:37;101121.66;;;11.70;52.32
52291;BME280;39663;45.432;28.050;2023-04-24T02:08:09;101122.00;;;12.02;52.96
52291;BME280;39663;45.432;28.050;2023-04-24T02:08:40;101123.36;;;11.69;52.64
52291;BME280;39663;45.432;28.050;2023-04-24T02:09:11;101125.30;;;11.62;53.50
52291;BME280;39663;45.432;28.050;2023-04-24T02:09:43;101122.79;;;11.59;52.32
52291;BME280;39663;45.432;28.050;2023-04-24T02:10:14;101123.17;;;11.58;53.47
52291;BME280;39663;45.432;28.050;2023-04-24T02:10:46;101122.27;;;11.69;52.34
52291;BME280;39663;45.432;28.050;2023-04-24T02:11:17;101121.15;;;11.80;51.90
52291;BME280;39663;45.432;28.050;2023-04-24T02:11:48;101119.11;;;11.42;52.43
52291;BME280;39663;45.432;28.050;2023-04-24T02:12:20;101119.55;;;11.60;52.15
52291;BME280;39663;45.432;28.050;2023-04-24T02:12:51;101118.13;;;11.67;51.48
52291;BME280;39663;45.432;28.050;2023-04-24T02:13:22;101114.98;;;12.08;51.13
52291;BME280;39663;45.432;28.050;2023-04-24T02:13:54;101115.22;;;11.94;50.71
52291;BME280;39663;45.432;28.050;2023-04-24T02:14:26;101114.24;;;12.03;50.59
52291;BME280;39663;45.432;28.050;2023-04-24T02:14:57;101116.25;;;11.93;51.13
52291;BME280;39663;45.432;28.050;2023-04-24T02:15:28;101113.81;;;11.71;51.28
52291;BME280;39663;45.432;28.050;2023-04-24T02:16:00;101114.24;;;11.91;51.16
52291;BME280;39663;45.432;28.050;2023-04-24T02:16:32;101115.81;;;11.61;51.41
52291;BME280;39663;45.432;28.050;2023-04-24T02:17:03;101112.38;;;11.67;51.31
52291;BME280;39663;45.432;28.050;2023-04-24T02:17:35;101110.74;;;12.02;51.11
52291;BME280;39663;45.432;28.050;2023-04-24T02:18:07;101111.70;;;11.81;51.18
52291;BME280;39663;45.432;28.050;2023-04-24T02:18:38;101113.21;;;12.01;51.15
52291;BME280;39663;45.432;28.050;2023-04-24T02:19:10;101110.66;;;12.15;51.22
52291;BME280;39663;45.432;28.050;2023-04-24T02:19:41;101111.08;;;12.02;51.08
52291;BME280;39663;45.432;28.050;2023-04-24T02:20:12;101114.02;;;11.87;51.72
52291;BME280;39663;45.432;28.050;2023-04-24T02:20:44;101116.14;;;11.90;52.19
52291;BME280;39663;45.432;28.050;2023-04-24T02:21:15;101110.10;;;11.88;51.50
52291;BME280;39663;45.432;28.050;2023-04-24T02:21:47;101116.37;;;11.90;52.15
52291;BME280;39663;45.432;28.050;2023-04-24T02:22:18;101111.75;;;11.85;51.62
52291;BME280;39663;45.432;28.050;2023-04-24T02:22:50;101110.97;;;11.97;51.22
52291;BME280;39663;45.432;28.050;2023-04-24T02:23:21;101109.95;;;11.95;51.31
52291;BME280;39663;45.432;28.050;2023-04-24T02:23:53;101113.34;;;11.72;51.88
52291;BME280;39663;45.432;28.050;2023-04-24T02:24:24;101113.54;;;11.29;52.16
52291;BME280;39663;45.432;28.050;2023-04-24T02:24:55;101111.62;;;11.62;51.93
52291;BME280;39663;45.432;28.050;2023-04-24T02:25:27;101110.74;;;11.60;51.61
52291;BME280;39663;45.432;28.050;2023-04-24T02:25:59;101112.61;;;11.99;51.79
52291;BME280;39663;45.432;28.050;2023-04-24T02:26:30;101110.93;;;11.38;52.55
52291;BME280;39663;45.432;28.050;2023-04-24T02:27:01;101112.87;;;11.12;53.07
52291;BME280;39663;45.432;28.050;2023-04-24T02:27:33;101113.08;;;11.62;52.40
52291;BME280;39663;45.432;28.050;2023-04-24T02:28:04;101111.13;;;11.87;52.08
52291;BME280;39663;45.432;28.050;2023-04-24T02:28:36;101110.62;;;11.48;51.94
52291;BME280;39663;45.432;28.050;2023-04-24T02:29:08;101110.00;;;11.67;52.12
52291;BME280;39663;45.432;28.050;2023-04-24T02:29:39;101106.99;;;11.62;51.91
52291;BME280;39663;45.432;28.050;2023-04-24T02:30:11;101105.87;;;11.90;51.83
52291;BME280;39663;45.432;28.050;2023-04-24T02:30:43;101105.91;;;11.87;51.72
52291;BME280;39663;45.432;28.050;2023-04-24T02:31:14;101106.02;;;11.76;51.99
52291;BME280;39663;45.432;28.050;2023-04-24T02:31:46;101106.53;;;11.98;51.60
52291;BME280;39663;45.432;28.050;2023-04-24T02:32:17;101106.53;;;12.05;51.54
52291;BME280;39663;45.432;28.050;2023-04-24T02:32:49;101107.58;;;11.81;51.68
52291;BME280;39663;45.432;28.050;2023-04-24T02:33:20;101106.97;;;11.99;51.73
52291;BME280;39663;45.432;28.050;2023-04-24T02:33:52;101105.00;;;11.84;51.95
52291;BME280;39663;45.432;28.050;2023-04-24T02:34:24;101104.43;;;11.82;52.06
52291;BME280;39663;45.432;28.050;2023-04-24T02:34:56;101108.11;;;12.00;52.40
52291;BME280;39663;45.432;28.050;2023-04-24T02:35:27;101106.36;;;11.85;52.30
52291;BME280;39663;45.432;28.050;2023-04-24T02:35:59;101106.35;;;11.86;52.62
52291;BME280;39663;45.432;28.050;2023-04-24T02:36:30;101103.88;;;11.70;52.18
52291;BME280;39663;45.432;28.050;2023-04-24T02:37:02;101109.46;;;11.66;53.03
52291;BME280;39663;45.432;28.050;2023-04-24T02:37:33;101108.60;;;11.74;52.79
52291;BME280;39663;45.432;28.050;2023-04-24T02:38:05;101107.67;;;11.38;53.10
52291;BME280;39663;45.432;28.050;2023-04-24T02:38:36;101109.84;;;11.68;52.86
52291;BME280;39663;45.432;28.050;2023-04-24T02:39:08;101106.04;;;11.83;52.63
52291;BME280;39663;45.432;28.050;2023-04-24T02:39:40;101108.34;;;11.69;52.89
52291;BME280;39663;45.432;28.050;2023-04-24T02:40:12;101107.69;;;11.79;53.35
52291;BME280;39663;45.432;28.050;2023-04-24T02:40:44;101109.45;;;11.65;53.24
52291;BME280;39663;45.432;28.050;2023-04-24T02:41:15;101104.86;;;11.84;52.86
52291;BME280;39663;45.432;28.050;2023-04-24T02:41:46;101104.61;;;11.75;52.67
52291;BME280;39663;45.432;28.050;2023-04-24T02:42:18;101103.16;;;12.04;52.57
52291;BME280;39663;45.432;28.050;2023-04-24T02:42:50;101104.32;;;12.05;52.64
52291;BME280;39663;45.432;28.050;2023-04-24T02:43:21;101104.55;;;12.07;52.65
52291;BME280;39663;45.432;28.050;2023-04-24T02:43:53;101103.31;;;12.27;52.79
52291;BME280;39663;45.432;28.050;2023-04-24T02:44:24;101103.30;;;12.07;52.66
52291;BME280;39663;45.432;28.050;2023-04-24T02:44:56;101105.14;;;12.08;52.79
52291;BME280;39663;45.432;28.050;2023-04-24T02:45:27;101104.70;;;12.17;53.00
52291;BME280;39663;45.432;28.050;2023-04-24T02:45:59;101105.76;;;12.19;52.97
52291;BME280;39663;45.432;28.050;2023-04-24T02:46:31;101104.49;;;12.07;52.99
52291;BME280;39663;45.432;28.050;2023-04-24T02:47:02;101103.56;;;11.83;53.06
52291;BME280;39663;45.432;28.050;2023-04-24T02:47:34;101104.12;;;12.21;53.07
52291;BME280;39663;45.432;28.050;2023-04-24T02:48:05;101105.27;;;11.89;53.23
52291;BME280;39663;45.432;28.050;2023-04-24T02:48:37;101107.11;;;12.21;53.26
52291;BME280;39663;45.432;28.050;2023-04-24T02:49:09;101110.00;;;11.50;53.76
52291;BME280;39663;45.432;28.050;2023-04-24T02:49:40;101105.82;;;11.97;53.39
52291;BME280;39663;45.432;28.050;2023-04-24T02:50:12;101106.54;;;11.54;53.56
52291;BME280;39663;45.432;28.050;2023-04-24T02:50:43;101105.57;;;11.69;53.45
52291;BME280;39663;45.432;28.050;2023-04-24T02:51:15;101102.49;;;12.14;53.33